createdAt,value
2018-05-12T00:01:26.050Z,99.50
2018-05-12T00:03:54.275Z,99.30
2018-05-12T00:06:22.562Z,99.10
2018-05-12T00:08:51.958Z,98.90
2018-05-12T00:11:20.183Z,99.30
2018-05-12T00:13:48.630Z,99.30
2018-05-12T00:16:16.875Z,99.10
2018-05-12T00:18:45.114Z,99.30
2018-05-12T00:28:42.032Z,98.90
2018-05-12T00:31:11.030Z,99.00
2018-05-12T00:33:39.272Z,98.90
2018-05-12T00:36:07.651Z,98.90
2018-05-12T00:38:35.883Z,99.00
2018-05-12T00:41:04.122Z,99.00
2018-05-12T00:43:33.520Z,99.20
2018-05-12T00:46:02.549Z,98.80
2018-05-12T00:48:30.854Z,98.90
2018-05-12T00:50:59.145Z,98.80
2018-05-12T00:55:58.365Z,99.10
2018-05-12T00:58:26.663Z,99.10
2018-05-12T01:00:54.912Z,99.20
2018-05-12T01:03:23.139Z,99.30
2018-05-12T01:08:20.953Z,99.50
2018-05-12T01:10:49.183Z,99.70
2018-05-12T01:13:18.959Z,99.40
2018-05-12T01:15:47.183Z,99.60
2018-05-12T01:18:15.415Z,99.90
2018-05-12T01:23:13.339Z,99.90
2018-05-12T01:25:41.573Z,99.90
2018-05-12T01:28:09.867Z,99.90
2018-05-12T01:33:08.683Z,99.90
2018-05-12T01:35:36.967Z,99.90
2018-05-12T01:38:05.200Z,99.90
2018-05-12T01:40:33.428Z,99.90
2018-05-12T01:43:02.462Z,99.90
2018-05-12T01:45:30.710Z,99.90
2018-05-12T01:47:58.927Z,99.90
2018-05-12T01:50:27.962Z,99.90
2018-05-12T01:52:56.958Z,99.90
2018-05-12T01:55:25.197Z,99.90
2018-05-12T01:57:53.468Z,99.90
2018-05-12T02:00:22.708Z,99.90
2018-05-12T02:02:51.325Z,99.90
2018-05-12T02:05:19.603Z,99.90
2018-05-12T02:07:48.619Z,99.90
2018-05-12T02:12:47.866Z,99.90
2018-05-12T02:15:16.092Z,99.90
2018-05-12T02:17:45.094Z,99.90
2018-05-12T02:20:14.895Z,99.90
2018-05-12T02:22:43.123Z,99.90
2018-05-12T02:25:12.860Z,99.90
2018-05-12T02:27:42.105Z,99.90
2018-05-12T02:30:10.363Z,99.90
2018-05-12T02:32:38.569Z,99.90
2018-05-12T02:35:06.871Z,99.90
2018-05-12T02:37:35.107Z,99.90
2018-05-12T02:40:03.327Z,99.90
2018-05-12T02:42:33.092Z,99.90
2018-05-12T02:45:01.346Z,99.90
2018-05-12T02:47:29.603Z,99.90
2018-05-12T02:49:57.864Z,99.90
2018-05-12T02:52:27.627Z,99.90
2018-05-12T02:54:55.887Z,99.90
2018-05-12T02:57:24.319Z,99.90
2018-05-12T02:59:52.579Z,99.90
2018-05-12T03:02:20.831Z,99.90
2018-05-12T03:04:49.094Z,99.90
2018-05-12T03:07:18.134Z,99.90
2018-05-12T03:09:47.135Z,99.90
2018-05-12T03:12:16.551Z,99.90
2018-05-12T03:14:44.792Z,99.90
2018-05-12T03:17:13.036Z,99.90
2018-05-12T03:19:42.314Z,99.90
2018-05-12T03:22:10.951Z,99.90
2018-05-12T03:24:39.959Z,99.90
2018-05-12T03:27:08.258Z,99.90
2018-05-12T03:29:38.007Z,99.90
2018-05-12T03:32:06.269Z,99.90
2018-05-12T03:34:35.303Z,99.90
2018-05-12T03:37:03.946Z,99.90
2018-05-12T03:39:32.190Z,99.90
2018-05-12T03:42:00.459Z,99.90
2018-05-12T03:44:28.696Z,99.90
2018-05-12T03:46:58.077Z,99.90
2018-05-12T03:49:26.335Z,99.90
2018-05-12T03:51:56.098Z,99.90
2018-05-12T03:54:28.579Z,99.90
2018-05-12T03:56:57.220Z,99.90
2018-05-12T03:59:25.474Z,99.90
2018-05-12T04:01:54.703Z,99.90
2018-05-12T04:04:35.651Z,99.90
2018-05-12T04:09:51.096Z,99.90
2018-05-12T04:12:33.551Z,99.90
2018-05-12T04:15:01.795Z,99.90
2018-05-12T04:17:30.044Z,99.90
2018-05-12T04:19:59.474Z,99.90
2018-05-12T04:22:27.723Z,99.90
2018-05-12T04:24:57.482Z,99.90
2018-05-12T04:27:25.777Z,99.90
2018-05-12T04:29:54.020Z,99.90
2018-05-12T04:32:22.305Z,99.90
2018-05-12T04:34:50.587Z,99.90
2018-05-12T04:37:18.831Z,99.90
2018-05-12T04:39:47.080Z,99.90
2018-05-12T04:42:15.383Z,99.90
2018-05-12T04:44:43.624Z,99.90
2018-05-12T04:49:42.872Z,99.90
2018-05-12T04:52:11.125Z,99.90
2018-05-12T04:54:39.358Z,99.90
2018-05-12T04:57:07.636Z,99.90
2018-05-12T04:59:37.007Z,99.90
2018-05-12T05:02:05.251Z,99.90
2018-05-12T05:04:33.524Z,99.90
2018-05-12T05:07:01.764Z,99.90
2018-05-12T05:09:30.856Z,99.90
2018-05-12T05:11:59.882Z,99.90
2018-05-12T05:14:28.107Z,99.90
2018-05-12T05:16:57.165Z,99.90
2018-05-12T05:19:26.166Z,99.90
2018-05-12T05:21:54.408Z,99.90
2018-05-12T05:24:23.115Z,99.90
2018-05-12T05:26:51.366Z,99.90
2018-05-12T05:29:20.369Z,99.90
2018-05-12T05:31:49.441Z,99.90
2018-05-12T05:34:17.679Z,99.90
2018-05-12T05:36:45.920Z,99.90
2018-05-12T05:39:14.971Z,99.90
2018-05-12T05:41:43.285Z,99.90
2018-05-12T05:44:11.473Z,99.90
2018-05-12T05:46:39.740Z,99.90
2018-05-12T05:49:08.393Z,99.90
2018-05-12T05:51:36.669Z,99.90
2018-05-12T05:54:06.415Z,99.90
2018-05-12T05:56:34.671Z,99.90
2018-05-12T05:59:04.096Z,99.90
2018-05-12T06:01:33.103Z,99.90
2018-05-12T06:06:31.176Z,99.90
2018-05-12T06:08:59.411Z,99.90
2018-05-12T06:11:27.659Z,99.90
2018-05-12T06:13:56.729Z,99.90
2018-05-12T06:16:24.955Z,99.90
2018-05-12T06:18:53.191Z,99.90
2018-05-12T06:23:51.709Z,99.90
2018-05-12T06:26:19.967Z,99.90
2018-05-12T06:28:49.847Z,99.90
2018-05-12T06:31:18.092Z,99.90
2018-05-12T06:33:46.346Z,99.90
2018-05-12T06:36:14.725Z,99.90
2018-05-12T06:38:43.731Z,99.90
2018-05-12T06:41:11.976Z,99.90
2018-05-12T06:43:40.243Z,99.90
2018-05-12T06:46:08.491Z,99.90
2018-05-12T06:48:36.741Z,99.90
2018-05-12T06:51:05.012Z,99.90
2018-05-12T06:56:02.707Z,99.90
2018-05-12T06:58:32.505Z,99.90
2018-05-12T07:01:00.740Z,99.90
2018-05-12T07:03:28.978Z,99.90
2018-05-12T07:05:58.026Z,99.90
2018-05-12T07:08:27.031Z,99.90
2018-05-12T07:10:55.284Z,99.90
2018-05-12T07:13:23.558Z,99.90
2018-05-12T07:15:51.796Z,99.90
2018-05-12T07:18:20.054Z,99.90
2018-05-12T07:20:48.347Z,99.90
2018-05-12T07:23:16.603Z,99.90
2018-05-12T07:30:43.786Z,99.90
2018-05-12T07:33:12.056Z,99.90
2018-05-12T07:35:40.322Z,99.90
2018-05-12T07:40:16.439Z,99.90
2018-05-12T07:42:44.706Z,99.90
2018-05-12T07:45:14.461Z,99.90
2018-05-12T07:47:42.740Z,99.90
2018-05-12T07:50:11.738Z,99.90
2018-05-12T07:52:41.119Z,99.90
2018-05-12T07:57:39.337Z,99.90
2018-05-12T08:00:07.583Z,98.90
2018-05-12T08:05:05.704Z,98.80
2018-05-12T08:07:34.731Z,99.20
2018-05-12T08:10:04.114Z,96.50
2018-05-12T08:12:33.141Z,97.30
2018-05-12T08:15:02.188Z,97.90
2018-05-12T08:17:30.441Z,96.40
2018-05-12T08:19:58.672Z,97.00
2018-05-12T08:22:26.965Z,97.50
2018-05-12T08:27:24.655Z,95.30
2018-05-12T08:29:52.944Z,96.20
2018-05-12T08:32:21.174Z,93.60
2018-05-12T08:34:49.407Z,92.60
2018-05-12T08:37:17.667Z,91.50
2018-05-12T08:39:45.914Z,92.00
2018-05-12T08:42:14.179Z,92.60
2018-05-12T08:44:43.941Z,93.50
2018-05-12T08:47:12.171Z,94.00
2018-05-12T08:49:40.438Z,93.30
2018-05-12T08:54:38.524Z,92.20
2018-05-12T08:57:07.067Z,91.40
2018-05-12T08:59:36.803Z,91.60
2018-05-12T09:02:05.049Z,91.90
2018-05-12T09:04:34.658Z,91.60
2018-05-12T09:07:04.459Z,93.00
2018-05-12T09:09:33.383Z,92.40
2018-05-12T09:12:01.681Z,91.50
2018-05-12T09:14:30.885Z,88.30
2018-05-12T09:24:27.955Z,85.10
2018-05-12T09:26:56.218Z,76.90
2018-05-12T09:34:23.391Z,73.70
2018-05-12T09:36:52.386Z,70.60
2018-05-12T09:39:20.612Z,72.00
2018-05-12T09:41:50.004Z,67.80
2018-05-12T09:44:18.998Z,63.10
2018-05-12T09:46:47.530Z,65.30
2018-05-12T09:49:16.935Z,65.00
2018-05-12T09:51:45.177Z,66.60
2018-05-12T09:54:13.409Z,66.50
2018-05-12T09:56:42.483Z,63.50
2018-05-12T09:59:10.766Z,65.90
2018-05-12T10:01:39.756Z,64.40
2018-05-12T10:06:37.462Z,65.10
2018-05-12T10:09:07.330Z,64.60
2018-05-12T10:11:35.596Z,66.90
2018-05-12T10:14:03.811Z,64.30
2018-05-12T10:16:33.544Z,65.10
2018-05-12T10:19:03.775Z,65.60
2018-05-12T10:21:31.997Z,66.80
2018-05-12T10:24:01.814Z,64.00
2018-05-12T10:26:30.080Z,64.70
2018-05-12T10:28:59.069Z,64.50
2018-05-12T10:31:28.235Z,63.70
2018-05-12T10:33:56.470Z,63.90
2018-05-12T10:38:54.739Z,59.40
2018-05-12T10:41:22.907Z,64.60
2018-05-12T10:43:52.642Z,60.90
2018-05-12T10:46:21.688Z,62.70
2018-05-12T10:48:49.911Z,61.80
2018-05-12T10:51:18.894Z,60.40
2018-05-12T10:53:47.939Z,61.20
2018-05-12T10:56:16.163Z,61.40
2018-05-12T10:58:44.401Z,62.20
2018-05-12T11:01:13.454Z,63.50
2018-05-12T11:03:42.443Z,61.20
2018-05-12T11:06:11.804Z,59.60
2018-05-12T11:08:40.075Z,59.60
2018-05-12T11:11:09.806Z,59.60
2018-05-12T11:13:38.799Z,62.80
2018-05-12T11:16:07.264Z,57.80
2018-05-12T11:18:36.240Z,61.70
2018-05-12T11:21:04.855Z,59.40
2018-05-12T11:23:33.117Z,57.10
2018-05-12T11:26:01.339Z,57.40
2018-05-12T11:30:09.613Z,58.40
2018-05-12T11:32:37.830Z,57.20
2018-05-12T11:35:07.195Z,58.50
2018-05-12T11:37:35.475Z,59.10
2018-05-12T11:40:03.710Z,56.70
2018-05-12T11:45:01.503Z,57.20
2018-05-12T11:47:30.496Z,56.40
2018-05-12T11:49:58.725Z,56.80
2018-05-12T11:52:27.770Z,57.40
2018-05-12T11:54:55.990Z,55.80
2018-05-12T11:57:24.233Z,55.90
2018-05-12T12:02:22.165Z,55.70
2018-05-12T12:04:50.366Z,56.70
2018-05-12T12:07:19.408Z,56.20
2018-05-12T12:09:48.394Z,57.00
2018-05-12T12:12:17.019Z,57.30
2018-05-12T12:14:45.691Z,56.80
2018-05-12T12:17:13.957Z,56.30
2018-05-12T12:19:42.947Z,55.80
2018-05-12T12:22:11.225Z,55.30
2018-05-12T12:24:39.457Z,55.80
2018-05-12T12:27:09.187Z,55.80
2018-05-12T12:29:38.211Z,55.30
2018-05-12T12:34:35.886Z,57.70
2018-05-12T12:37:04.148Z,57.10
2018-05-12T12:39:32.362Z,56.40
2018-05-12T12:42:00.987Z,56.40
2018-05-12T12:44:30.014Z,57.70
2018-05-12T12:46:58.631Z,58.00
2018-05-12T12:49:26.865Z,57.00
2018-05-12T12:51:55.147Z,57.90
2018-05-12T12:54:23.375Z,56.70
2018-05-12T12:56:52.736Z,55.30
2018-05-12T12:59:21.003Z,57.80
2018-05-12T13:01:50.731Z,56.60
2018-05-12T13:04:19.346Z,57.90
2018-05-12T13:09:17.070Z,56.60
2018-05-12T13:14:15.546Z,56.70
2018-05-12T13:16:43.771Z,57.60
2018-05-12T13:21:41.907Z,55.00
2018-05-12T13:26:39.985Z,59.40
2018-05-12T13:29:08.255Z,56.30
2018-05-12T13:31:36.483Z,55.80
2018-05-12T13:34:04.718Z,56.10
2018-05-12T13:41:32.308Z,59.10
2018-05-12T13:44:00.931Z,57.30
2018-05-12T13:46:29.159Z,57.90
2018-05-12T13:48:57.422Z,56.20
2018-05-12T13:51:26.066Z,57.60
2018-05-12T13:56:23.837Z,56.60
2018-05-12T14:01:21.541Z,57.10
2018-05-12T14:06:20.022Z,58.50
2018-05-12T14:08:48.261Z,58.70
2018-05-12T14:13:46.754Z,57.60
2018-05-12T14:16:14.989Z,59.90
2018-05-12T14:18:43.239Z,59.60
2018-05-12T14:21:12.622Z,58.00
2018-05-12T14:23:40.887Z,58.20
2018-05-12T14:26:10.627Z,59.30
2018-05-12T14:28:39.618Z,60.20
2018-05-12T14:31:07.892Z,62.60
2018-05-12T14:33:36.882Z,63.30
2018-05-12T14:36:05.106Z,61.60
2018-05-12T14:41:03.269Z,59.20
2018-05-12T14:43:31.495Z,59.40
2018-05-12T14:45:59.785Z,61.10
2018-05-12T14:48:28.021Z,63.50
2018-05-12T14:50:56.635Z,64.50
2018-05-12T14:53:24.895Z,62.30
2018-05-12T14:55:54.627Z,62.70
2018-05-12T14:58:24.369Z,59.20
2018-05-12T15:00:54.135Z,59.40
2018-05-12T15:03:22.778Z,59.50
2018-05-12T15:05:50.999Z,59.20
2018-05-12T15:08:20.479Z,59.90
2018-05-12T15:10:48.618Z,60.40
2018-05-12T15:13:16.851Z,60.40
2018-05-12T15:15:45.120Z,62.90
2018-05-12T15:18:13.346Z,59.40
2018-05-12T15:20:41.967Z,59.90
2018-05-12T15:23:10.258Z,58.80
2018-05-12T15:25:39.988Z,59.10
2018-05-12T15:28:08.214Z,58.20
2018-05-12T15:30:36.741Z,60.00
2018-05-12T15:33:05.734Z,61.50
2018-05-12T15:38:03.842Z,60.50
2018-05-12T15:40:32.067Z,59.80
2018-05-12T15:43:00.502Z,60.60
2018-05-12T15:45:30.289Z,60.10
2018-05-12T15:47:58.511Z,60.20
2018-05-12T15:50:26.748Z,60.40
2018-05-12T15:52:56.518Z,59.30
2018-05-12T15:55:24.753Z,59.80
2018-05-12T15:57:53.024Z,60.90
2018-05-12T16:00:21.274Z,59.90
2018-05-12T16:02:51.021Z,60.60
2018-05-12T16:05:19.278Z,59.70
2018-05-12T16:07:47.517Z,60.80
2018-05-12T16:10:17.246Z,60.80
2018-05-12T16:12:46.277Z,61.50
2018-05-12T16:17:43.974Z,59.70
2018-05-12T16:20:12.247Z,60.20
2018-05-12T16:22:40.475Z,62.80
2018-05-12T16:25:08.749Z,64.80
2018-05-12T16:30:06.449Z,66.00
2018-05-12T16:32:34.703Z,66.80
2018-05-12T16:35:02.923Z,67.90
2018-05-12T16:37:32.691Z,69.20
2018-05-12T16:40:00.918Z,68.00
2018-05-12T16:42:29.153Z,66.70
2018-05-12T16:44:58.922Z,67.50
2018-05-12T16:47:27.151Z,68.20
2018-05-12T16:49:55.379Z,68.20
2018-05-12T16:52:23.642Z,70.60
2018-05-12T16:54:51.891Z,71.20
2018-05-12T16:57:20.133Z,73.00
2018-05-12T16:59:48.403Z,72.30
2018-05-12T17:02:17.763Z,72.50
2018-05-12T17:04:45.991Z,72.30
2018-05-12T17:07:14.552Z,71.60
2018-05-12T17:12:12.250Z,70.80
2018-05-12T17:14:40.512Z,72.90
2018-05-12T17:17:10.247Z,77.00
2018-05-12T17:19:38.484Z,76.30
2018-05-12T17:22:06.770Z,75.60
2018-05-12T17:24:34.995Z,75.10
2018-05-12T17:27:04.730Z,74.50
2018-05-12T17:29:33.009Z,73.80
2018-05-12T17:32:01.235Z,72.90
2018-05-12T17:34:29.703Z,73.50
2018-05-12T17:36:57.968Z,73.90
2018-05-12T17:39:27.327Z,74.50
2018-05-12T17:41:55.570Z,77.30
2018-05-12T17:44:23.969Z,83.00
2018-05-12T17:46:52.099Z,84.10
2018-05-12T17:51:49.830Z,81.10
2018-05-12T17:54:18.059Z,80.50
2018-05-12T17:56:46.301Z,79.90
2018-05-12T17:59:14.559Z,81.70
2018-05-12T18:01:42.797Z,81.30
2018-05-12T18:04:11.019Z,80.50
2018-05-12T18:06:40.795Z,79.70
2018-05-12T18:09:09.028Z,79.50
2018-05-12T18:11:37.277Z,73.80
2018-05-12T18:14:07.032Z,74.00
2018-05-12T18:16:35.263Z,75.40
2018-05-12T18:19:03.509Z,77.30
2018-05-12T18:21:33.268Z,77.50
2018-05-12T18:24:02.259Z,77.90
2018-05-12T18:26:31.282Z,78.20
2018-05-12T18:29:00.289Z,80.00
2018-05-12T18:31:29.652Z,80.30
2018-05-12T18:33:57.919Z,80.40
2018-05-12T18:36:26.910Z,80.80
2018-05-12T18:38:56.656Z,81.50
2018-05-12T18:41:24.929Z,81.70
2018-05-12T18:43:54.291Z,82.10
2018-05-12T18:46:22.515Z,82.40
2018-05-12T18:48:50.798Z,82.60
2018-05-12T18:51:19.033Z,83.30
2018-05-12T18:53:47.256Z,82.90
2018-05-12T18:56:15.534Z,83.50
2018-05-12T18:58:43.756Z,83.40
2018-05-12T19:01:11.983Z,83.20
2018-05-12T19:06:09.707Z,84.80
2018-05-12T19:08:37.926Z,84.30
2018-05-12T19:11:06.212Z,84.90
2018-05-12T19:13:34.445Z,86.10
2018-05-12T19:18:32.173Z,86.50
2018-05-12T19:23:08.807Z,87.30
2018-05-12T19:25:38.574Z,87.70
2018-05-12T19:28:06.802Z,88.10
2018-05-12T19:30:35.155Z,88.00
2018-05-12T19:35:32.927Z,87.60
2018-05-12T19:38:02.067Z,88.80
2018-05-12T19:40:30.770Z,88.60
2018-05-12T19:42:59.017Z,88.70
2018-05-12T19:45:28.009Z,89.50
2018-05-12T19:47:57.792Z,89.60
2018-05-12T19:50:26.015Z,90.00
2018-05-12T19:52:54.239Z,90.20
2018-05-12T19:55:22.506Z,90.30
2018-05-12T19:57:51.495Z,90.50
2018-05-12T20:00:20.114Z,90.60
2018-05-12T20:02:48.771Z,90.70
2018-05-12T20:05:18.521Z,90.80
2018-05-12T20:07:46.742Z,90.90
2018-05-12T20:10:16.194Z,91.00
2018-05-12T20:12:44.437Z,91.30
2018-05-12T20:15:12.677Z,91.40
2018-05-12T20:17:42.457Z,91.40
2018-05-12T20:20:10.679Z,91.60
2018-05-12T20:22:38.907Z,91.70
2018-05-12T20:27:37.760Z,92.20
2018-05-12T20:30:06.019Z,92.20
2018-05-12T20:35:03.703Z,92.50
2018-05-12T20:37:32.638Z,92.70
2018-05-12T20:40:02.083Z,92.80
2018-05-12T20:42:30.359Z,92.80
2018-05-12T20:44:59.748Z,93.20
2018-05-12T20:47:27.978Z,93.20
2018-05-12T20:52:26.855Z,93.60
2018-05-12T20:54:55.079Z,93.70
2018-05-12T20:57:24.070Z,93.90
2018-05-12T20:59:52.335Z,94.00
2018-05-12T21:04:51.107Z,94.20
2018-05-12T21:07:20.896Z,94.20
2018-05-12T21:09:49.118Z,94.30
2018-05-12T21:12:17.342Z,94.40
2018-05-12T21:14:47.123Z,94.50
2018-05-12T21:17:15.339Z,94.70
2018-05-12T21:19:43.564Z,94.50
2018-05-12T21:22:11.866Z,94.50
2018-05-12T21:24:40.091Z,94.70
2018-05-12T21:27:09.468Z,95.00
2018-05-12T21:29:38.488Z,95.10
2018-05-12T21:34:42.027Z,95.30
2018-05-12T21:37:11.012Z,95.60
2018-05-12T21:39:39.998Z,95.70
2018-05-12T21:42:08.295Z,95.80
2018-05-12T21:44:37.278Z,95.80
2018-05-12T21:47:06.267Z,96.00
2018-05-12T21:49:34.523Z,95.90
2018-05-12T21:52:02.746Z,95.80
2018-05-12T21:54:31.009Z,96.10
2018-05-12T21:56:59.306Z,96.20
2018-05-12T21:59:27.542Z,96.40
2018-05-12T22:01:55.763Z,96.50
2018-05-12T22:04:24.300Z,96.50
2018-05-12T22:06:53.298Z,96.70
2018-05-12T22:09:21.533Z,96.80
2018-05-12T22:11:50.015Z,97.00
2018-05-12T22:14:19.011Z,97.40
2018-05-12T22:16:48.004Z,97.00
2018-05-12T22:19:16.246Z,97.10
2018-05-12T22:24:14.389Z,97.50
2018-05-12T22:26:42.607Z,97.40
2018-05-12T22:29:10.836Z,97.30
2018-05-12T22:31:39.102Z,97.60
2018-05-12T22:34:08.476Z,97.50
2018-05-12T22:39:07.699Z,98.00
2018-05-12T22:41:37.059Z,97.90
2018-05-12T22:44:05.335Z,97.80
2018-05-12T22:46:35.140Z,97.80
2018-05-12T22:49:03.371Z,98.20
2018-05-12T22:51:32.370Z,98.20
2018-05-12T22:54:01.411Z,98.00
2018-05-12T22:56:30.425Z,98.60
2018-05-12T22:58:59.794Z,98.30
2018-05-12T23:01:28.074Z,98.40
2018-05-12T23:03:56.305Z,98.60
2018-05-12T23:06:24.934Z,98.60
2018-05-12T23:08:53.204Z,98.70
2018-05-12T23:11:22.195Z,98.90
2018-05-12T23:13:50.423Z,98.90
2018-05-12T23:16:20.187Z,99.40
2018-05-12T23:18:48.429Z,99.30
2018-05-12T23:21:16.689Z,99.30
2018-05-12T23:23:44.952Z,99.80
2018-05-12T23:26:13.183Z,99.80
2018-05-12T23:28:42.915Z,99.90
2018-05-12T23:31:11.184Z,99.90
2018-05-12T23:33:39.425Z,99.90
2018-05-12T23:36:07.779Z,99.90
2018-05-12T23:38:37.648Z,99.90
2018-05-12T23:41:05.885Z,99.90
2018-05-12T23:43:34.131Z,99.90
2018-05-12T23:48:31.832Z,99.90
2018-05-12T23:51:00.125Z,99.90
2018-05-12T23:53:28.352Z,99.90
2018-05-12T23:55:56.601Z,99.90
2018-05-12T23:58:24.987Z,99.90
